createdAt,value
2018-10-21T00:01:05.182Z,5.01
2018-10-21T00:04:10.210Z,5.04
2018-10-21T00:07:15.280Z,4.96
2018-10-21T00:10:21.906Z,4.88
2018-10-21T00:13:26.922Z,4.88
2018-10-21T00:16:32.137Z,4.89
2018-10-21T00:19:37.125Z,4.82
2018-10-21T00:22:42.117Z,4.82
2018-10-21T00:25:47.178Z,4.77
2018-10-21T00:28:52.825Z,4.70
2018-10-21T00:32:00.016Z,4.64
2018-10-21T00:35:06.379Z,4.63
2018-10-21T00:38:11.368Z,4.65
2018-10-21T00:41:16.329Z,4.67
2018-10-21T00:44:21.322Z,4.64
2018-10-21T00:47:26.959Z,4.61
2018-10-21T00:50:32.015Z,4.55
2018-10-21T00:53:37.013Z,4.59
2018-10-21T00:56:43.574Z,4.57
2018-10-21T00:59:48.571Z,4.48
2018-10-21T01:02:53.581Z,4.51
2018-10-21T01:05:58.582Z,4.51
2018-10-21T01:09:10.351Z,4.51
2018-10-21T01:12:15.426Z,4.54
2018-10-21T01:15:20.434Z,4.54
2018-10-21T01:18:25.415Z,4.51
2018-10-21T01:21:30.466Z,4.52
2018-10-21T01:24:35.442Z,4.56
2018-10-21T01:27:41.266Z,4.61
2018-10-21T01:30:46.261Z,4.59
2018-10-21T01:33:51.394Z,4.56
2018-10-21T01:36:56.447Z,4.61
2018-10-21T01:40:40.612Z,4.59
2018-10-21T01:43:45.847Z,4.58
2018-10-21T01:46:50.827Z,4.57
2018-10-21T01:49:55.786Z,4.58
2018-10-21T01:53:01.952Z,4.60
2018-10-21T01:56:06.940Z,4.59
2018-10-21T01:59:11.939Z,4.55
2018-10-21T02:02:16.911Z,4.58
2018-10-21T02:05:22.198Z,4.59
2018-10-21T02:08:27.158Z,4.61
2018-10-21T02:11:32.125Z,4.56
2018-10-21T02:14:37.098Z,4.54
2018-10-21T02:17:42.222Z,4.46
2018-10-21T02:20:47.234Z,4.37
2018-10-21T02:23:52.219Z,4.32
2018-10-21T02:26:57.303Z,4.34
2018-10-21T02:30:02.383Z,4.30
2018-10-21T02:33:07.506Z,4.32
2018-10-21T02:36:12.489Z,4.33
2018-10-21T02:39:17.563Z,4.32
2018-10-21T02:42:22.984Z,4.27
2018-10-21T02:45:27.996Z,4.23
2018-10-21T02:48:32.993Z,4.20
2018-10-21T02:51:38.071Z,4.19
2018-10-21T02:54:43.995Z,4.16
2018-10-21T02:57:48.961Z,4.13
2018-10-21T03:00:54.633Z,4.11
2018-10-21T03:03:59.797Z,4.08
2018-10-21T03:07:04.990Z,4.08
2018-10-21T03:10:09.983Z,4.03
2018-10-21T03:13:14.941Z,3.99
2018-10-21T03:16:19.955Z,3.93
2018-10-21T03:19:28.045Z,3.91
2018-10-21T03:22:34.254Z,3.86
2018-10-21T03:25:39.915Z,3.79
2018-10-21T03:28:53.237Z,3.75
2018-10-21T03:31:58.628Z,3.68
2018-10-21T03:35:06.348Z,3.67
2018-10-21T03:38:11.744Z,3.67
2018-10-21T03:41:18.729Z,3.69
2018-10-21T03:44:24.146Z,3.70
2018-10-21T03:47:29.655Z,3.69
2018-10-21T03:50:38.932Z,3.65
2018-10-21T03:53:43.986Z,3.56
2018-10-21T03:56:48.984Z,3.53
2018-10-21T03:59:53.959Z,3.43
2018-10-21T04:02:58.934Z,3.51
2018-10-21T04:06:05.558Z,3.50
2018-10-21T04:09:13.257Z,3.48
2018-10-21T04:12:18.311Z,3.43
2018-10-21T04:15:23.326Z,3.42
2018-10-21T04:18:28.317Z,3.37
2018-10-21T04:21:33.449Z,3.23
2018-10-21T04:24:38.429Z,3.24
2018-10-21T04:27:43.443Z,3.25
2018-10-21T04:30:48.477Z,3.22
2018-10-21T04:33:53.492Z,3.18
2018-10-21T04:37:10.008Z,3.18
2018-10-21T04:40:19.962Z,3.15
2018-10-21T04:43:24.990Z,3.11
2018-10-21T04:46:30.004Z,3.09
2018-10-21T04:49:34.952Z,3.06
2018-10-21T04:52:39.942Z,3.02
2018-10-21T04:55:44.968Z,3.06
2018-10-21T04:58:49.952Z,3.03
2018-10-21T05:01:54.918Z,3.04
2018-10-21T05:05:00.095Z,2.98
2018-10-21T05:08:06.836Z,2.93
2018-10-21T05:14:58.571Z,2.77
2018-10-21T05:18:03.966Z,2.81
2018-10-21T05:21:08.929Z,2.83
2018-10-21T05:24:14.030Z,2.84
2018-10-21T05:27:18.990Z,2.85
2018-10-21T05:30:23.952Z,2.80
2018-10-21T05:33:28.920Z,2.84
2018-10-21T05:36:33.882Z,2.85
2018-10-21T05:39:38.850Z,2.83
2018-10-21T05:42:44.377Z,2.89
2018-10-21T05:45:49.345Z,2.90
2018-10-21T05:48:54.305Z,2.86
2018-10-21T05:51:59.281Z,2.88
2018-10-21T05:55:04.589Z,2.89
2018-10-21T05:58:09.544Z,2.90
2018-10-21T06:01:14.497Z,2.90
2018-10-21T06:04:19.485Z,2.93
2018-10-21T06:07:24.493Z,2.89
2018-10-21T06:10:29.598Z,2.87
2018-10-21T06:13:34.560Z,2.83
2018-10-21T06:16:49.554Z,2.87
2018-10-21T06:19:58.005Z,2.89
2018-10-21T06:23:03.029Z,2.88
2018-10-21T06:26:08.178Z,2.88
2018-10-21T06:29:13.207Z,2.83
2018-10-21T06:32:18.169Z,2.87
2018-10-21T06:35:23.163Z,2.89
2018-10-21T06:38:28.193Z,2.93
2018-10-21T06:41:35.115Z,2.97
2018-10-21T06:44:40.110Z,3.04
2018-10-21T06:47:45.116Z,3.07
2018-10-21T06:50:50.218Z,3.13
2018-10-21T06:53:55.258Z,3.19
2018-10-21T06:57:00.340Z,3.25
2018-10-21T07:00:06.792Z,3.30
2018-10-21T07:03:11.779Z,3.34
2018-10-21T07:06:18.906Z,3.38
2018-10-21T07:09:23.941Z,3.44
2018-10-21T07:12:28.949Z,3.50
2018-10-21T07:15:34.107Z,3.56
2018-10-21T07:18:41.922Z,3.62
2018-10-21T07:21:46.965Z,3.70
2018-10-21T07:24:53.128Z,3.84
2018-10-21T07:27:58.177Z,3.94
2018-10-21T07:31:03.366Z,4.06
2018-10-21T07:34:09.969Z,4.19
2018-10-21T07:37:15.109Z,4.34
2018-10-21T07:40:20.276Z,4.48
2018-10-21T07:43:25.301Z,4.68
2018-10-21T07:46:30.291Z,4.85
2018-10-21T07:49:35.370Z,5.02
2018-10-21T07:52:40.353Z,5.23
2018-10-21T07:55:45.407Z,5.44
2018-10-21T07:58:50.379Z,5.65
2018-10-21T08:01:55.343Z,5.81
2018-10-21T08:05:00.334Z,6.01
2018-10-21T08:08:16.347Z,6.28
2018-10-21T08:11:21.367Z,6.53
2018-10-21T08:14:26.530Z,6.82
2018-10-21T08:17:31.484Z,7.14
2018-10-21T08:23:48.721Z,7.72
2018-10-21T08:26:55.401Z,8.03
2018-10-21T08:30:00.487Z,8.36
2018-10-21T08:33:06.041Z,8.69
2018-10-21T08:36:11.062Z,8.82
2018-10-21T08:39:16.055Z,8.96
2018-10-21T08:42:21.027Z,9.01
2018-10-21T08:45:26.055Z,9.43
2018-10-21T08:48:31.050Z,9.59
2018-10-21T08:51:36.268Z,9.82
2018-10-21T08:54:41.241Z,10.22
2018-10-21T08:57:46.261Z,10.35
2018-10-21T09:00:51.291Z,10.34
2018-10-21T09:03:56.330Z,10.33
2018-10-21T09:07:01.608Z,10.47
2018-10-21T09:10:07.914Z,10.67
2018-10-21T09:13:13.007Z,10.70
2018-10-21T09:16:18.182Z,10.69
2018-10-21T09:19:23.105Z,10.84
2018-10-21T09:22:28.054Z,10.88
2018-10-21T09:25:33.025Z,11.16
2018-10-21T09:28:38.018Z,11.21
2018-10-21T09:31:42.974Z,11.39
2018-10-21T09:34:54.783Z,11.55
2018-10-21T09:37:59.784Z,11.66
2018-10-21T09:41:04.918Z,11.94
2018-10-21T09:44:11.802Z,12.12
2018-10-21T09:47:16.761Z,12.41
2018-10-21T09:50:21.810Z,12.37
2018-10-21T09:53:26.773Z,12.53
2018-10-21T09:56:31.795Z,12.59
2018-10-21T09:59:43.550Z,12.67
2018-10-21T10:02:54.243Z,12.84
2018-10-21T10:05:59.222Z,12.95
2018-10-21T10:09:07.168Z,13.15
2018-10-21T10:12:18.934Z,13.09
2018-10-21T10:15:24.090Z,13.20
2018-10-21T10:18:29.061Z,13.22
2018-10-21T10:21:34.573Z,13.57
2018-10-21T10:24:39.594Z,13.85
2018-10-21T10:27:44.601Z,14.08
2018-10-21T10:30:49.609Z,14.36
2018-10-21T10:33:54.636Z,14.65
2018-10-21T10:36:59.619Z,14.70
2018-10-21T10:40:06.025Z,14.82
2018-10-21T10:43:11.036Z,14.91
2018-10-21T10:46:16.037Z,14.59
2018-10-21T10:49:20.965Z,14.70
2018-10-21T10:52:26.704Z,14.84
2018-10-21T10:55:37.539Z,14.93
2018-10-21T10:58:42.516Z,15.21
2018-10-21T11:01:47.488Z,15.34
2018-10-21T11:04:54.227Z,15.45
2018-10-21T11:07:59.685Z,15.39
2018-10-21T11:11:04.899Z,15.62
2018-10-21T11:14:11.451Z,15.57
2018-10-21T11:17:16.505Z,15.57
2018-10-21T11:20:23.622Z,15.77
2018-10-21T11:23:30.676Z,16.06
2018-10-21T11:26:35.693Z,16.10
2018-10-21T11:29:40.724Z,16.06
2018-10-21T11:32:45.917Z,16.27
2018-10-21T11:35:51.035Z,16.31
2018-10-21T11:38:56.379Z,16.35
2018-10-21T11:42:01.391Z,16.31
2018-10-21T11:45:06.613Z,16.31
2018-10-21T11:48:11.621Z,16.40
2018-10-21T11:51:16.639Z,16.48
2018-10-21T11:54:21.643Z,16.59
2018-10-21T11:57:26.751Z,16.79
2018-10-21T12:00:31.824Z,16.84
2018-10-21T12:03:36.958Z,16.96
2018-10-21T12:06:42.018Z,17.07
2018-10-21T12:09:48.531Z,17.12
2018-10-21T12:14:57.173Z,17.22
2018-10-21T12:18:02.230Z,17.27
2018-10-21T12:21:07.297Z,17.47
2018-10-21T12:24:12.393Z,17.45
2018-10-21T12:27:17.447Z,17.72
2018-10-21T12:30:22.468Z,18.05
2018-10-21T12:33:27.619Z,18.01
2018-10-21T12:36:32.654Z,17.99
2018-10-21T12:39:38.064Z,17.89
2018-10-21T12:42:43.132Z,17.97
2018-10-21T12:45:48.430Z,18.20
2018-10-21T12:48:55.793Z,18.25
2018-10-21T12:52:00.803Z,18.38
2018-10-21T12:55:07.044Z,18.24
2018-10-21T12:58:12.152Z,18.18
2018-10-21T13:01:17.170Z,18.02
2018-10-21T13:04:22.941Z,18.18
2018-10-21T13:07:27.992Z,18.06
2018-10-21T13:10:33.031Z,17.92
2018-10-21T13:13:38.107Z,17.95
2018-10-21T13:16:43.136Z,18.23
2018-10-21T13:19:48.242Z,18.30
2018-10-21T13:22:53.264Z,18.09
2018-10-21T13:25:58.260Z,18.06
2018-10-21T13:29:03.315Z,17.92
2018-10-21T13:32:08.362Z,17.75
2018-10-21T13:35:13.378Z,17.70
2018-10-21T13:38:18.442Z,17.77
2018-10-21T13:41:26.773Z,17.79
2018-10-21T13:44:31.788Z,18.02
2018-10-21T13:47:36.796Z,18.18
2018-10-21T13:50:43.443Z,18.05
2018-10-21T13:53:48.430Z,17.82
2018-10-21T13:57:06.721Z,17.91
2018-10-21T14:00:11.913Z,17.84
2018-10-21T14:03:16.967Z,17.75
2018-10-21T14:06:21.999Z,17.80
2018-10-21T14:09:27.017Z,17.80
2018-10-21T14:12:32.130Z,17.78
2018-10-21T14:15:37.132Z,17.78
2018-10-21T14:18:42.320Z,17.76
2018-10-21T14:21:47.267Z,17.63
2018-10-21T14:24:52.306Z,17.44
2018-10-21T14:27:57.459Z,17.49
2018-10-21T14:31:02.974Z,17.49
2018-10-21T14:34:07.828Z,17.24
2018-10-21T14:37:13.161Z,17.20
2018-10-21T14:40:18.153Z,17.15
2018-10-21T14:43:23.155Z,17.04
2018-10-21T14:46:28.142Z,16.93
2018-10-21T14:49:33.874Z,16.89
2018-10-21T14:52:40.617Z,16.82
2018-10-21T14:55:47.609Z,16.81
2018-10-21T14:59:11.391Z,16.80
2018-10-21T15:02:16.539Z,16.59
2018-10-21T15:05:21.446Z,16.43
2018-10-21T15:08:26.490Z,16.32
2018-10-21T15:11:31.498Z,16.31
2018-10-21T15:14:36.600Z,16.06
2018-10-21T15:17:43.148Z,16.10
2018-10-21T15:20:48.173Z,16.04
2018-10-21T15:23:53.177Z,15.95
2018-10-21T15:26:58.466Z,15.80
2018-10-21T15:30:04.303Z,15.67
2018-10-21T15:33:09.222Z,15.54
2018-10-21T15:36:14.469Z,15.52
2018-10-21T15:39:19.780Z,15.51
2018-10-21T15:42:24.964Z,15.40
2018-10-21T15:45:29.952Z,15.20
2018-10-21T15:48:35.456Z,15.15
2018-10-21T15:51:40.529Z,15.02
2018-10-21T15:54:45.884Z,14.85
2018-10-21T15:57:50.969Z,14.64
2018-10-21T16:00:55.957Z,14.39
2018-10-21T16:04:01.057Z,14.20
2018-10-21T16:07:06.220Z,13.98
2018-10-21T16:10:11.289Z,13.77
2018-10-21T16:13:16.262Z,13.57
2018-10-21T16:16:21.342Z,13.38
2018-10-21T16:19:26.219Z,13.20
2018-10-21T16:22:31.189Z,13.00
2018-10-21T16:25:36.329Z,12.82
2018-10-21T16:28:41.254Z,12.65
2018-10-21T16:31:46.290Z,12.52
2018-10-21T16:34:51.223Z,12.34
2018-10-21T16:41:29.362Z,11.92
2018-10-21T16:44:34.533Z,11.76
2018-10-21T16:47:39.984Z,11.65
2018-10-21T16:50:45.025Z,11.52
2018-10-21T16:53:49.947Z,11.39
2018-10-21T16:56:54.941Z,11.27
2018-10-21T16:59:59.925Z,11.11
2018-10-21T17:03:05.338Z,11.01
2018-10-21T17:06:10.265Z,10.90
2018-10-21T17:09:15.256Z,10.79
2018-10-21T17:12:20.490Z,10.70
2018-10-21T17:15:25.608Z,10.56
2018-10-21T17:18:30.595Z,10.44
2018-10-21T17:21:35.570Z,10.31
2018-10-21T17:24:40.630Z,10.22
2018-10-21T17:27:45.622Z,10.04
2018-10-21T17:30:50.597Z,9.85
2018-10-21T17:33:55.578Z,9.82
2018-10-21T17:37:00.616Z,9.77
2018-10-21T17:40:06.777Z,9.71
2018-10-21T17:43:11.917Z,9.63
2018-10-21T17:46:16.902Z,9.57
2018-10-21T17:49:21.855Z,9.45
2018-10-21T17:52:26.935Z,9.37
2018-10-21T17:55:32.008Z,9.29
2018-10-21T17:58:37.077Z,9.22
2018-10-21T18:01:56.166Z,9.15
2018-10-21T18:05:01.648Z,9.03
2018-10-21T18:08:06.761Z,8.96
2018-10-21T18:11:11.815Z,8.87
2018-10-21T18:14:16.881Z,8.76
2018-10-21T18:17:22.245Z,8.71
2018-10-21T18:20:27.234Z,8.63
2018-10-21T18:23:32.299Z,8.50
2018-10-21T18:26:37.570Z,8.48
2018-10-21T18:29:42.558Z,8.39
2018-10-21T18:32:47.671Z,8.30
2018-10-21T18:35:52.714Z,8.22
2018-10-21T18:38:57.805Z,8.20
2018-10-21T18:42:03.045Z,8.12
2018-10-21T18:45:10.018Z,8.05
2018-10-21T18:48:15.108Z,7.96
2018-10-21T18:51:20.428Z,7.85
2018-10-21T18:54:25.471Z,7.82
2018-10-21T18:57:30.753Z,7.76
2018-10-21T19:00:35.781Z,7.72
2018-10-21T19:03:41.607Z,7.64
2018-10-21T19:06:46.850Z,7.57
2018-10-21T19:09:51.860Z,7.54
2018-10-21T19:13:00.054Z,7.49
2018-10-21T19:16:02.244Z,7.42
2018-10-21T19:19:07.311Z,7.38
2018-10-21T19:22:12.460Z,7.29
2018-10-21T19:25:17.600Z,7.23
2018-10-21T19:28:22.578Z,7.17
2018-10-21T19:31:27.626Z,7.13
2018-10-21T19:34:33.042Z,7.08
2018-10-21T19:37:39.072Z,7.02
2018-10-21T19:40:44.718Z,6.92
2018-10-21T19:43:49.967Z,6.97
2018-10-21T19:46:54.980Z,6.92
2018-10-21T19:50:00.082Z,6.85
2018-10-21T19:53:05.200Z,6.77
2018-10-21T19:56:10.200Z,6.74
2018-10-21T19:59:15.477Z,6.71
2018-10-21T20:02:20.544Z,6.65
2018-10-21T20:05:25.438Z,6.63
2018-10-21T20:08:30.441Z,6.61
2018-10-21T20:11:35.762Z,6.57
2018-10-21T20:14:40.926Z,6.48
2018-10-21T20:17:45.930Z,6.45
2018-10-21T20:20:50.936Z,6.32
2018-10-21T20:23:55.935Z,6.29
2018-10-21T20:27:00.926Z,6.28
2018-10-21T20:30:07.442Z,6.29
2018-10-21T20:33:12.465Z,6.28
2018-10-21T20:36:17.410Z,6.24
2018-10-21T20:39:22.406Z,6.19
2018-10-21T20:42:34.134Z,6.18
2018-10-21T20:45:39.142Z,6.10
2018-10-21T20:48:44.149Z,6.08
2018-10-21T20:51:49.203Z,6.08
2018-10-21T20:54:54.281Z,6.03
2018-10-21T20:57:59.458Z,5.95
2018-10-21T21:01:04.881Z,5.93
2018-10-21T21:04:10.079Z,5.92
2018-10-21T21:07:15.131Z,5.88
2018-10-21T21:10:20.209Z,5.83
2018-10-21T21:14:57.259Z,5.63
2018-10-21T21:18:02.654Z,5.64
2018-10-21T21:21:07.635Z,5.65
2018-10-21T21:24:12.713Z,5.64
2018-10-21T21:27:17.666Z,5.60
2018-10-21T21:30:22.671Z,5.59
2018-10-21T21:33:27.651Z,5.61
2018-10-21T21:36:34.417Z,5.62
2018-10-21T21:39:42.697Z,5.59
2018-10-21T21:42:47.677Z,5.60
2018-10-21T21:45:52.652Z,5.58
2018-10-21T21:48:57.648Z,5.54
2018-10-21T21:52:02.639Z,5.50
2018-10-21T21:55:07.679Z,5.46
2018-10-21T21:58:12.797Z,5.46
2018-10-21T22:01:25.393Z,5.49
2018-10-21T22:04:30.409Z,5.50
2018-10-21T22:07:36.008Z,5.50
2018-10-21T22:10:41.046Z,5.48
2018-10-21T22:13:46.065Z,5.43
2018-10-21T22:16:51.075Z,5.40
2018-10-21T22:19:56.121Z,5.35
2018-10-21T22:23:01.489Z,5.34
2018-10-21T22:26:06.554Z,5.36
2018-10-21T22:29:11.550Z,5.34
2018-10-21T22:32:16.571Z,5.28
2018-10-21T22:35:21.592Z,5.25
2018-10-21T22:38:37.739Z,5.22
2018-10-21T22:41:42.738Z,5.17
2018-10-21T22:44:47.705Z,5.15
2018-10-21T22:47:52.718Z,5.12
2018-10-21T22:50:57.733Z,5.09
2018-10-21T22:54:03.637Z,5.07
2018-10-21T22:57:14.231Z,5.00
2018-10-21T23:00:19.338Z,4.96
2018-10-21T23:03:24.354Z,4.99
2018-10-21T23:06:29.370Z,4.98
2018-10-21T23:09:34.369Z,4.98
2018-10-21T23:12:41.215Z,4.96
2018-10-21T23:15:46.233Z,4.97
2018-10-21T23:18:58.390Z,4.94
2018-10-21T23:22:04.336Z,4.89
2018-10-21T23:25:09.663Z,4.88
2018-10-21T23:28:15.114Z,4.87
2018-10-21T23:31:21.194Z,4.77
2018-10-21T23:34:26.761Z,4.79
2018-10-21T23:37:31.755Z,4.75
2018-10-21T23:40:36.741Z,4.73
2018-10-21T23:43:41.714Z,4.71
2018-10-21T23:46:55.571Z,4.62
2018-10-21T23:50:00.558Z,4.58
2018-10-21T23:53:05.542Z,4.61
2018-10-21T23:56:18.473Z,4.59
2018-10-21T23:59:23.463Z,4.54
